sensor_id;sensor_type;location;lat;lon;timestamp;P1;durP1;ratioP1;P2;durP2;ratioP2
38465;SDS011;24244;51.950;5.902;2022-09-09T00:01:35;5.82;;;2.33;;
38465;SDS011;24244;51.950;5.902;2022-09-09T00:04:10;4.97;;;2.20;;
38465;SDS011;24244;51.950;5.902;2022-09-09T00:06:43;5.50;;;2.10;;
38465;SDS011;24244;51.950;5.902;2022-09-09T00:09:12;6.20;;;2.20;;
38465;SDS011;24244;51.950;5.902;2022-09-09T00:11:42;5.95;;;2.28;;
38465;SDS011;24244;51.950;5.902;2022-09-09T00:14:13;6.03;;;2.25;;
38465;SDS011;24244;51.950;5.902;2022-09-09T00:16:50;5.35;;;2.00;;
38465;SDS011;24244;51.950;5.902;2022-09-09T00:19:20;5.43;;;1.90;;
38465;SDS011;24244;51.950;5.902;2022-09-09T00:21:51;5.55;;;1.92;;
38465;SDS011;24244;51.950;5.902;2022-09-09T00:24:28;5.47;;;1.80;;
38465;SDS011;24244;51.950;5.902;2022-09-09T00:27:04;5.28;;;2.20;;
38465;SDS011;24244;51.950;5.902;2022-09-09T00:29:35;5.60;;;2.00;;
38465;SDS011;24244;51.950;5.902;2022-09-09T00:32:08;4.35;;;1.67;;
38465;SDS011;24244;51.950;5.902;2022-09-09T00:34:37;5.22;;;1.83;;
38465;SDS011;24244;51.950;5.902;2022-09-09T00:37:08;4.97;;;2.00;;
38465;SDS011;24244;51.950;5.902;2022-09-09T00:39:36;5.47;;;2.20;;
38465;SDS011;24244;51.950;5.902;2022-09-09T00:42:10;6.07;;;2.28;;
38465;SDS011;24244;51.950;5.902;2022-09-09T00:44:44;5.65;;;2.15;;
38465;SDS011;24244;51.950;5.902;2022-09-09T00:47:20;6.10;;;2.40;;
38465;SDS011;24244;51.950;5.902;2022-09-09T00:50:03;5.72;;;2.50;;
38465;SDS011;24244;51.950;5.902;2022-09-09T00:52:36;5.78;;;2.58;;
38465;SDS011;24244;51.950;5.902;2022-09-09T00:55:12;5.30;;;2.22;;
38465;SDS011;24244;51.950;5.902;2022-09-09T00:57:41;4.80;;;2.08;;
38465;SDS011;24244;51.950;5.902;2022-09-09T01:00:18;5.35;;;2.20;;
38465;SDS011;24244;51.950;5.902;2022-09-09T01:02:51;5.53;;;2.30;;
38465;SDS011;24244;51.950;5.902;2022-09-09T01:05:26;5.55;;;2.13;;
38465;SDS011;24244;51.950;5.902;2022-09-09T01:08:00;6.45;;;2.28;;
38465;SDS011;24244;51.950;5.902;2022-09-09T01:10:30;5.88;;;2.60;;
38465;SDS011;24244;51.950;5.902;2022-09-09T01:13:08;5.43;;;2.33;;
38465;SDS011;24244;51.950;5.902;2022-09-09T01:15:41;5.55;;;2.15;;
38465;SDS011;24244;51.950;5.902;2022-09-09T01:18:12;5.80;;;2.28;;
38465;SDS011;24244;51.950;5.902;2022-09-09T01:20:43;6.38;;;2.00;;
38465;SDS011;24244;51.950;5.902;2022-09-09T01:23:23;5.20;;;2.03;;
38465;SDS011;24244;51.950;5.902;2022-09-09T01:26:18;7.30;;;2.23;;
38465;SDS011;24244;51.950;5.902;2022-09-09T01:28:48;5.95;;;2.10;;
38465;SDS011;24244;51.950;5.902;2022-09-09T01:31:18;3.60;;;1.60;;
38465;SDS011;24244;51.950;5.902;2022-09-09T01:33:46;5.55;;;2.10;;
38465;SDS011;24244;51.950;5.902;2022-09-09T01:36:13;4.82;;;1.90;;
38465;SDS011;24244;51.950;5.902;2022-09-09T01:38:46;5.80;;;1.80;;
38465;SDS011;24244;51.950;5.902;2022-09-09T01:41:11;4.85;;;1.58;;
38465;SDS011;24244;51.950;5.902;2022-09-09T01:43:38;6.10;;;2.08;;
38465;SDS011;24244;51.950;5.902;2022-09-09T01:46:04;4.45;;;1.83;;
38465;SDS011;24244;51.950;5.902;2022-09-09T01:48:30;5.85;;;2.00;;
38465;SDS011;24244;51.950;5.902;2022-09-09T01:50:57;4.93;;;1.92;;
38465;SDS011;24244;51.950;5.902;2022-09-09T01:53:22;5.45;;;2.00;;
38465;SDS011;24244;51.950;5.902;2022-09-09T01:55:49;5.43;;;2.05;;
38465;SDS011;24244;51.950;5.902;2022-09-09T01:58:28;5.22;;;1.75;;
38465;SDS011;24244;51.950;5.902;2022-09-09T02:01:02;6.97;;;2.00;;
38465;SDS011;24244;51.950;5.902;2022-09-09T02:03:35;4.63;;;1.80;;
38465;SDS011;24244;51.950;5.902;2022-09-09T02:06:04;4.50;;;1.85;;
38465;SDS011;24244;51.950;5.902;2022-09-09T02:08:40;6.07;;;1.98;;
38465;SDS011;24244;51.950;5.902;2022-09-09T02:11:09;4.35;;;1.70;;
38465;SDS011;24244;51.950;5.902;2022-09-09T02:13:38;4.72;;;1.58;;
38465;SDS011;24244;51.950;5.902;2022-09-09T02:16:07;5.25;;;2.05;;
38465;SDS011;24244;51.950;5.902;2022-09-09T02:18:36;4.55;;;1.70;;
38465;SDS011;24244;51.950;5.902;2022-09-09T02:21:05;4.70;;;1.80;;
38465;SDS011;24244;51.950;5.902;2022-09-09T02:23:32;5.07;;;1.95;;
38465;SDS011;24244;51.950;5.902;2022-09-09T02:25:59;5.40;;;1.80;;
38465;SDS011;24244;51.950;5.902;2022-09-09T02:28:27;5.97;;;2.10;;
38465;SDS011;24244;51.950;5.902;2022-09-09T02:30:56;5.40;;;1.90;;
38465;SDS011;24244;51.950;5.902;2022-09-09T02:33:26;4.63;;;1.60;;
38465;SDS011;24244;51.950;5.902;2022-09-09T02:35:54;3.95;;;1.67;;
38465;SDS011;24244;51.950;5.902;2022-09-09T02:38:26;4.55;;;1.83;;
38465;SDS011;24244;51.950;5.902;2022-09-09T02:40:56;5.30;;;2.00;;
38465;SDS011;24244;51.950;5.902;2022-09-09T02:43:23;5.70;;;1.95;;
38465;SDS011;24244;51.950;5.902;2022-09-09T02:45:51;5.57;;;2.00;;
38465;SDS011;24244;51.950;5.902;2022-09-09T02:48:29;5.80;;;2.05;;
38465;SDS011;24244;51.950;5.902;2022-09-09T02:51:01;5.07;;;1.92;;
38465;SDS011;24244;51.950;5.902;2022-09-09T02:53:36;5.03;;;1.98;;
38465;SDS011;24244;51.950;5.902;2022-09-09T02:56:09;5.88;;;2.08;;
38465;SDS011;24244;51.950;5.902;2022-09-09T02:58:39;6.22;;;2.10;;
38465;SDS011;24244;51.950;5.902;2022-09-09T03:01:06;6.07;;;2.10;;
38465;SDS011;24244;51.950;5.902;2022-09-09T03:03:35;5.60;;;2.30;;
38465;SDS011;24244;51.950;5.902;2022-09-09T03:06:01;6.13;;;2.20;;
38465;SDS011;24244;51.950;5.902;2022-09-09T03:08:26;6.95;;;2.30;;
38465;SDS011;24244;51.950;5.902;2022-09-09T03:10:53;5.50;;;2.13;;
38465;SDS011;24244;51.950;5.902;2022-09-09T03:13:19;5.57;;;2.00;;
38465;SDS011;24244;51.950;5.902;2022-09-09T03:15:45;7.30;;;2.47;;
38465;SDS011;24244;51.950;5.902;2022-09-09T03:18:10;6.00;;;2.28;;
38465;SDS011;24244;51.950;5.902;2022-09-09T03:20:37;4.97;;;2.00;;
38465;SDS011;24244;51.950;5.902;2022-09-09T03:23:03;6.90;;;2.20;;
38465;SDS011;24244;51.950;5.902;2022-09-09T03:25:28;6.72;;;2.30;;
38465;SDS011;24244;51.950;5.902;2022-09-09T03:27:55;6.80;;;2.65;;
38465;SDS011;24244;51.950;5.902;2022-09-09T03:30:21;5.13;;;2.28;;
38465;SDS011;24244;51.950;5.902;2022-09-09T03:32:47;5.72;;;2.03;;
38465;SDS011;24244;51.950;5.902;2022-09-09T03:35:13;5.30;;;2.10;;
38465;SDS011;24244;51.950;5.902;2022-09-09T03:37:40;7.50;;;2.42;;
38465;SDS011;24244;51.950;5.902;2022-09-09T03:40:07;6.00;;;2.35;;
38465;SDS011;24244;51.950;5.902;2022-09-09T03:42:34;6.15;;;2.30;;
38465;SDS011;24244;51.950;5.902;2022-09-09T03:45:02;6.45;;;2.20;;
38465;SDS011;24244;51.950;5.902;2022-09-09T03:47:28;5.60;;;2.30;;
38465;SDS011;24244;51.950;5.902;2022-09-09T03:49:54;5.47;;;2.28;;
38465;SDS011;24244;51.950;5.902;2022-09-09T03:52:19;8.90;;;2.72;;
38465;SDS011;24244;51.950;5.902;2022-09-09T03:54:48;5.20;;;2.33;;
38465;SDS011;24244;51.950;5.902;2022-09-09T03:57:13;6.75;;;2.38;;
38465;SDS011;24244;51.950;5.902;2022-09-09T03:59:41;7.03;;;2.75;;
38465;SDS011;24244;51.950;5.902;2022-09-09T04:02:07;7.03;;;2.78;;
38465;SDS011;24244;51.950;5.902;2022-09-09T04:04:32;5.65;;;2.42;;
38465;SDS011;24244;51.950;5.902;2022-09-09T04:06:58;6.57;;;2.53;;
38465;SDS011;24244;51.950;5.902;2022-09-09T04:09:23;6.60;;;2.50;;
38465;SDS011;24244;51.950;5.902;2022-09-09T04:11:50;7.00;;;2.63;;
38465;SDS011;24244;51.950;5.902;2022-09-09T04:14:17;5.80;;;2.72;;
38465;SDS011;24244;51.950;5.902;2022-09-09T04:16:43;9.65;;;2.90;;
38465;SDS011;24244;51.950;5.902;2022-09-09T04:19:09;5.95;;;2.80;;
38465;SDS011;24244;51.950;5.902;2022-09-09T04:21:37;5.80;;;2.50;;
38465;SDS011;24244;51.950;5.902;2022-09-09T04:24:09;6.55;;;2.53;;
38465;SDS011;24244;51.950;5.902;2022-09-09T04:26:35;6.63;;;2.53;;
38465;SDS011;24244;51.950;5.902;2022-09-09T04:29:03;6.72;;;2.72;;
38465;SDS011;24244;51.950;5.902;2022-09-09T04:31:29;7.57;;;2.50;;
38465;SDS011;24244;51.950;5.902;2022-09-09T04:33:55;7.40;;;2.50;;
38465;SDS011;24244;51.950;5.902;2022-09-09T04:36:20;7.60;;;2.50;;
38465;SDS011;24244;51.950;5.902;2022-09-09T04:38:47;6.28;;;2.38;;
38465;SDS011;24244;51.950;5.902;2022-09-09T04:41:14;6.82;;;2.30;;
38465;SDS011;24244;51.950;5.902;2022-09-09T04:43:41;6.22;;;2.30;;
38465;SDS011;24244;51.950;5.902;2022-09-09T04:46:09;6.18;;;1.98;;
38465;SDS011;24244;51.950;5.902;2022-09-09T04:48:34;5.45;;;2.40;;
38465;SDS011;24244;51.950;5.902;2022-09-09T04:51:00;7.80;;;2.47;;
38465;SDS011;24244;51.950;5.902;2022-09-09T04:56:00;8.40;;;2.10;;
38465;SDS011;24244;51.950;5.902;2022-09-09T04:58:28;7.13;;;2.45;;
38465;SDS011;24244;51.950;5.902;2022-09-09T05:00:53;7.28;;;2.70;;
38465;SDS011;24244;51.950;5.902;2022-09-09T05:03:20;8.25;;;2.65;;
38465;SDS011;24244;51.950;5.902;2022-09-09T05:05:46;9.45;;;2.97;;
38465;SDS011;24244;51.950;5.902;2022-09-09T05:08:12;6.45;;;2.50;;
38465;SDS011;24244;51.950;5.902;2022-09-09T05:10:38;6.15;;;2.50;;
38465;SDS011;24244;51.950;5.902;2022-09-09T05:13:04;6.18;;;2.35;;
38465;SDS011;24244;51.950;5.902;2022-09-09T05:15:31;7.15;;;2.40;;
38465;SDS011;24244;51.950;5.902;2022-09-09T05:17:57;7.65;;;2.45;;
38465;SDS011;24244;51.950;5.902;2022-09-09T05:20:25;7.03;;;2.28;;
38465;SDS011;24244;51.950;5.902;2022-09-09T05:22:52;6.50;;;2.40;;
38465;SDS011;24244;51.950;5.902;2022-09-09T05:25:18;7.53;;;2.40;;
38465;SDS011;24244;51.950;5.902;2022-09-09T05:27:44;6.25;;;2.65;;
38465;SDS011;24244;51.950;5.902;2022-09-09T05:30:10;6.80;;;2.40;;
38465;SDS011;24244;51.950;5.902;2022-09-09T05:32:36;7.93;;;2.50;;
38465;SDS011;24244;51.950;5.902;2022-09-09T05:35:02;7.00;;;2.55;;
38465;SDS011;24244;51.950;5.902;2022-09-09T05:37:31;6.00;;;2.30;;
38465;SDS011;24244;51.950;5.902;2022-09-09T05:39:57;6.47;;;2.50;;
38465;SDS011;24244;51.950;5.902;2022-09-09T05:42:23;8.65;;;2.80;;
38465;SDS011;24244;51.950;5.902;2022-09-09T05:44:48;6.85;;;2.33;;
38465;SDS011;24244;51.950;5.902;2022-09-09T05:47:15;6.53;;;2.58;;
38465;SDS011;24244;51.950;5.902;2022-09-09T05:49:42;8.13;;;2.78;;
38465;SDS011;24244;51.950;5.902;2022-09-09T05:52:08;7.32;;;2.65;;
38465;SDS011;24244;51.950;5.902;2022-09-09T05:54:36;7.38;;;2.47;;
38465;SDS011;24244;51.950;5.902;2022-09-09T05:57:03;6.32;;;2.55;;
38465;SDS011;24244;51.950;5.902;2022-09-09T05:59:28;5.57;;;2.30;;
38465;SDS011;24244;51.950;5.902;2022-09-09T06:01:54;6.22;;;2.40;;
38465;SDS011;24244;51.950;5.902;2022-09-09T06:04:19;7.05;;;2.65;;
38465;SDS011;24244;51.950;5.902;2022-09-09T06:06:47;6.85;;;2.42;;
38465;SDS011;24244;51.950;5.902;2022-09-09T06:09:13;7.80;;;2.80;;
38465;SDS011;24244;51.950;5.902;2022-09-09T06:11:41;6.82;;;2.38;;
38465;SDS011;24244;51.950;5.902;2022-09-09T06:14:08;6.15;;;2.50;;
38465;SDS011;24244;51.950;5.902;2022-09-09T06:16:34;6.35;;;2.35;;
38465;SDS011;24244;51.950;5.902;2022-09-09T06:19:00;6.68;;;2.00;;
38465;SDS011;24244;51.950;5.902;2022-09-09T06:21:28;6.80;;;2.35;;
38465;SDS011;24244;51.950;5.902;2022-09-09T06:23:55;8.55;;;2.60;;
38465;SDS011;24244;51.950;5.902;2022-09-09T06:26:21;7.25;;;2.75;;
38465;SDS011;24244;51.950;5.902;2022-09-09T06:28:51;8.65;;;2.65;;
38465;SDS011;24244;51.950;5.902;2022-09-09T06:31:18;7.95;;;2.50;;
38465;SDS011;24244;51.950;5.902;2022-09-09T06:33:48;7.82;;;2.50;;
38465;SDS011;24244;51.950;5.902;2022-09-09T06:36:15;7.63;;;2.70;;
38465;SDS011;24244;51.950;5.902;2022-09-09T06:38:43;5.95;;;2.65;;
38465;SDS011;24244;51.950;5.902;2022-09-09T06:41:09;8.77;;;3.00;;
38465;SDS011;24244;51.950;5.902;2022-09-09T06:43:37;9.30;;;2.77;;
38465;SDS011;24244;51.950;5.902;2022-09-09T06:46:05;7.80;;;2.42;;
38465;SDS011;24244;51.950;5.902;2022-09-09T06:48:33;9.45;;;3.20;;
38465;SDS011;24244;51.950;5.902;2022-09-09T06:51:02;7.13;;;2.60;;
38465;SDS011;24244;51.950;5.902;2022-09-09T06:53:29;7.13;;;2.30;;
38465;SDS011;24244;51.950;5.902;2022-09-09T06:55:54;6.05;;;2.28;;
38465;SDS011;24244;51.950;5.902;2022-09-09T06:58:20;7.45;;;2.22;;
38465;SDS011;24244;51.950;5.902;2022-09-09T07:00:47;8.60;;;2.50;;
38465;SDS011;24244;51.950;5.902;2022-09-09T07:03:14;7.40;;;2.22;;
38465;SDS011;24244;51.950;5.902;2022-09-09T07:05:39;7.40;;;2.20;;
38465;SDS011;24244;51.950;5.902;2022-09-09T07:08:05;7.68;;;2.35;;
38465;SDS011;24244;51.950;5.902;2022-09-09T07:10:31;9.02;;;2.33;;
38465;SDS011;24244;51.950;5.902;2022-09-09T07:12:56;8.40;;;2.30;;
38465;SDS011;24244;51.950;5.902;2022-09-09T07:17:51;6.90;;;1.85;;
38465;SDS011;24244;51.950;5.902;2022-09-09T07:20:20;7.90;;;2.30;;
38465;SDS011;24244;51.950;5.902;2022-09-09T07:22:45;8.25;;;2.95;;
38465;SDS011;24244;51.950;5.902;2022-09-09T07:25:11;6.57;;;2.63;;
38465;SDS011;24244;51.950;5.902;2022-09-09T07:27:36;7.60;;;2.00;;
38465;SDS011;24244;51.950;5.902;2022-09-09T07:30:02;7.57;;;2.50;;
38465;SDS011;24244;51.950;5.902;2022-09-09T07:32:29;6.82;;;2.55;;
38465;SDS011;24244;51.950;5.902;2022-09-09T07:34:55;8.68;;;2.30;;
38465;SDS011;24244;51.950;5.902;2022-09-09T07:37:24;6.85;;;2.33;;
38465;SDS011;24244;51.950;5.902;2022-09-09T07:39:49;9.48;;;2.90;;
38465;SDS011;24244;51.950;5.902;2022-09-09T07:42:16;9.43;;;2.55;;
38465;SDS011;24244;51.950;5.902;2022-09-09T07:44:41;9.23;;;2.50;;
38465;SDS011;24244;51.950;5.902;2022-09-09T07:47:07;7.85;;;2.50;;
38465;SDS011;24244;51.950;5.902;2022-09-09T07:49:32;7.72;;;2.78;;
38465;SDS011;24244;51.950;5.902;2022-09-09T07:51:59;6.05;;;2.47;;
38465;SDS011;24244;51.950;5.902;2022-09-09T07:54:26;8.55;;;2.72;;
38465;SDS011;24244;51.950;5.902;2022-09-09T07:56:52;8.02;;;2.45;;
38465;SDS011;24244;51.950;5.902;2022-09-09T07:59:17;9.30;;;2.95;;
38465;SDS011;24244;51.950;5.902;2022-09-09T08:01:44;7.57;;;2.53;;
38465;SDS011;24244;51.950;5.902;2022-09-09T08:04:12;8.13;;;2.90;;
38465;SDS011;24244;51.950;5.902;2022-09-09T08:06:41;7.00;;;2.25;;
38465;SDS011;24244;51.950;5.902;2022-09-09T08:09:07;7.43;;;2.28;;
38465;SDS011;24244;51.950;5.902;2022-09-09T08:11:36;7.05;;;2.38;;
38465;SDS011;24244;51.950;5.902;2022-09-09T08:14:02;11.03;;;2.87;;
38465;SDS011;24244;51.950;5.902;2022-09-09T08:16:29;8.82;;;2.33;;
38465;SDS011;24244;51.950;5.902;2022-09-09T08:18:56;7.80;;;2.25;;
38465;SDS011;24244;51.950;5.902;2022-09-09T08:21:23;8.77;;;2.35;;
38465;SDS011;24244;51.950;5.902;2022-09-09T08:23:52;8.18;;;2.33;;
38465;SDS011;24244;51.950;5.902;2022-09-09T08:26:19;7.90;;;2.28;;
38465;SDS011;24244;51.950;5.902;2022-09-09T08:28:50;7.85;;;2.38;;
38465;SDS011;24244;51.950;5.902;2022-09-09T08:33:44;6.90;;;2.40;;
38465;SDS011;24244;51.950;5.902;2022-09-09T08:36:13;8.93;;;2.47;;
38465;SDS011;24244;51.950;5.902;2022-09-09T08:38:40;8.13;;;2.50;;
38465;SDS011;24244;51.950;5.902;2022-09-09T08:41:30;8.20;;;2.42;;
38465;SDS011;24244;51.950;5.902;2022-09-09T08:44:09;7.68;;;2.00;;
38465;SDS011;24244;51.950;5.902;2022-09-09T08:46:42;8.00;;;2.15;;
38465;SDS011;24244;51.950;5.902;2022-09-09T08:49:21;6.70;;;2.10;;
38465;SDS011;24244;51.950;5.902;2022-09-09T08:51:58;7.88;;;2.08;;
38465;SDS011;24244;51.950;5.902;2022-09-09T08:54:25;7.07;;;2.20;;
38465;SDS011;24244;51.950;5.902;2022-09-09T08:56:57;6.50;;;2.10;;
38465;SDS011;24244;51.950;5.902;2022-09-09T08:59:24;6.60;;;1.80;;
38465;SDS011;24244;51.950;5.902;2022-09-09T09:01:51;8.45;;;1.70;;
38465;SDS011;24244;51.950;5.902;2022-09-09T09:04:32;5.63;;;1.67;;
38465;SDS011;24244;51.950;5.902;2022-09-09T09:07:06;7.53;;;1.73;;
38465;SDS011;24244;51.950;5.902;2022-09-09T09:09:42;7.80;;;1.88;;
38465;SDS011;24244;51.950;5.902;2022-09-09T09:12:16;7.50;;;1.85;;
38465;SDS011;24244;51.950;5.902;2022-09-09T09:14:46;6.30;;;1.58;;
38465;SDS011;24244;51.950;5.902;2022-09-09T09:19:40;5.28;;;1.52;;
38465;SDS011;24244;51.950;5.902;2022-09-09T09:22:11;6.75;;;1.92;;
38465;SDS011;24244;51.950;5.902;2022-09-09T09:24:44;7.18;;;1.85;;
38465;SDS011;24244;51.950;5.902;2022-09-09T09:27:16;5.13;;;1.77;;
38465;SDS011;24244;51.950;5.902;2022-09-09T09:29:49;9.60;;;1.80;;
38465;SDS011;24244;51.950;5.902;2022-09-09T09:32:18;5.97;;;2.05;;
38465;SDS011;24244;51.950;5.902;2022-09-09T09:34:48;5.10;;;1.70;;
38465;SDS011;24244;51.950;5.902;2022-09-09T09:37:15;5.63;;;1.50;;
38465;SDS011;24244;51.950;5.902;2022-09-09T09:39:46;6.28;;;1.58;;
38465;SDS011;24244;51.950;5.902;2022-09-09T09:42:12;5.68;;;1.63;;
38465;SDS011;24244;51.950;5.902;2022-09-09T09:44:40;7.10;;;1.75;;
38465;SDS011;24244;51.950;5.902;2022-09-09T09:47:08;6.65;;;1.60;;
38465;SDS011;24244;51.950;5.902;2022-09-09T09:49:37;5.47;;;1.50;;
38465;SDS011;24244;51.950;5.902;2022-09-09T09:52:03;6.25;;;1.40;;
38465;SDS011;24244;51.950;5.902;2022-09-09T09:54:29;5.85;;;1.70;;
38465;SDS011;24244;51.950;5.902;2022-09-09T09:57:07;5.25;;;1.65;;
38465;SDS011;24244;51.950;5.902;2022-09-09T09:59:34;6.07;;;1.52;;
38465;SDS011;24244;51.950;5.902;2022-09-09T10:02:24;8.30;;;1.67;;
38465;SDS011;24244;51.950;5.902;2022-09-09T10:05:00;5.38;;;1.55;;
38465;SDS011;24244;51.950;5.902;2022-09-09T10:07:27;5.03;;;1.92;;
38465;SDS011;24244;51.950;5.902;2022-09-09T10:09:53;6.60;;;1.75;;
38465;SDS011;24244;51.950;5.902;2022-09-09T10:12:24;7.05;;;1.80;;
38465;SDS011;24244;51.950;5.902;2022-09-09T10:15:01;7.90;;;1.73;;
38465;SDS011;24244;51.950;5.902;2022-09-09T10:17:44;3.83;;;1.45;;
38465;SDS011;24244;51.950;5.902;2022-09-09T10:22:56;6.25;;;1.52;;
38465;SDS011;24244;51.950;5.902;2022-09-09T10:25:38;3.42;;;1.38;;
38465;SDS011;24244;51.950;5.902;2022-09-09T10:31:15;6.45;;;1.48;;
38465;SDS011;24244;51.950;5.902;2022-09-09T10:33:50;6.43;;;1.50;;
38465;SDS011;24244;51.950;5.902;2022-09-09T10:36:23;5.75;;;1.52;;
38465;SDS011;24244;51.950;5.902;2022-09-09T10:38:52;8.57;;;1.67;;
38465;SDS011;24244;51.950;5.902;2022-09-09T10:41:25;8.10;;;1.90;;
38465;SDS011;24244;51.950;5.902;2022-09-09T10:47:17;5.07;;;1.50;;
38465;SDS011;24244;51.950;5.902;2022-09-09T10:50:06;6.13;;;1.50;;
38465;SDS011;24244;51.950;5.902;2022-09-09T10:52:51;6.22;;;1.67;;
38465;SDS011;24244;51.950;5.902;2022-09-09T10:55:27;5.85;;;1.80;;
38465;SDS011;24244;51.950;5.902;2022-09-09T10:58:02;7.38;;;1.60;;
38465;SDS011;24244;51.950;5.902;2022-09-09T11:00:30;5.18;;;1.75;;
38465;SDS011;24244;51.950;5.902;2022-09-09T11:03:05;5.10;;;1.25;;
38465;SDS011;24244;51.950;5.902;2022-09-09T11:05:41;5.28;;;1.40;;
38465;SDS011;24244;51.950;5.902;2022-09-09T11:08:10;5.72;;;1.55;;
38465;SDS011;24244;51.950;5.902;2022-09-09T11:10:41;5.55;;;1.65;;
38465;SDS011;24244;51.950;5.902;2022-09-09T11:13:14;7.22;;;1.80;;
38465;SDS011;24244;51.950;5.902;2022-09-09T11:15:45;5.65;;;1.50;;
38465;SDS011;24244;51.950;5.902;2022-09-09T11:18:17;6.20;;;1.80;;
38465;SDS011;24244;51.950;5.902;2022-09-09T11:20:49;7.18;;;2.00;;
38465;SDS011;24244;51.950;5.902;2022-09-09T11:23:22;7.10;;;1.80;;
38465;SDS011;24244;51.950;5.902;2022-09-09T11:25:53;7.50;;;1.98;;
38465;SDS011;24244;51.950;5.902;2022-09-09T11:28:32;6.82;;;1.95;;
38465;SDS011;24244;51.950;5.902;2022-09-09T11:31:19;6.78;;;2.05;;
38465;SDS011;24244;51.950;5.902;2022-09-09T11:34:04;6.88;;;1.90;;
38465;SDS011;24244;51.950;5.902;2022-09-09T11:36:53;5.97;;;1.67;;
38465;SDS011;24244;51.950;5.902;2022-09-09T11:39:34;7.20;;;1.95;;
38465;SDS011;24244;51.950;5.902;2022-09-09T11:42:13;7.10;;;1.88;;
38465;SDS011;24244;51.950;5.902;2022-09-09T11:44:48;6.30;;;1.67;;
38465;SDS011;24244;51.950;5.902;2022-09-09T11:47:22;6.45;;;1.60;;
38465;SDS011;24244;51.950;5.902;2022-09-09T11:50:06;5.38;;;1.50;;
38465;SDS011;24244;51.950;5.902;2022-09-09T11:52:37;5.38;;;1.55;;
38465;SDS011;24244;51.950;5.902;2022-09-09T11:55:08;7.53;;;1.67;;
38465;SDS011;24244;51.950;5.902;2022-09-09T11:57:36;6.15;;;1.60;;
38465;SDS011;24244;51.950;5.902;2022-09-09T12:00:03;6.65;;;1.85;;
38465;SDS011;24244;51.950;5.902;2022-09-09T12:02:30;5.10;;;1.83;;
38465;SDS011;24244;51.950;5.902;2022-09-09T12:04:58;5.65;;;1.60;;
38465;SDS011;24244;51.950;5.902;2022-09-09T12:07:28;6.50;;;1.85;;
38465;SDS011;24244;51.950;5.902;2022-09-09T12:10:00;6.07;;;1.63;;
38465;SDS011;24244;51.950;5.902;2022-09-09T12:12:43;4.85;;;1.77;;
38465;SDS011;24244;51.950;5.902;2022-09-09T12:15:22;8.48;;;1.70;;
38465;SDS011;24244;51.950;5.902;2022-09-09T12:17:53;6.68;;;1.90;;
38465;SDS011;24244;51.950;5.902;2022-09-09T12:20:21;5.97;;;1.83;;
38465;SDS011;24244;51.950;5.902;2022-09-09T12:22:54;5.32;;;1.70;;
38465;SDS011;24244;51.950;5.902;2022-09-09T12:25:33;5.53;;;1.63;;
38465;SDS011;24244;51.950;5.902;2022-09-09T12:28:09;6.75;;;1.70;;
38465;SDS011;24244;51.950;5.902;2022-09-09T12:30:41;6.25;;;1.50;;
38465;SDS011;24244;51.950;5.902;2022-09-09T12:33:16;5.38;;;1.50;;
38465;SDS011;24244;51.950;5.902;2022-09-09T12:35:43;5.10;;;1.33;;
38465;SDS011;24244;51.950;5.902;2022-09-09T12:38:13;4.72;;;1.50;;
38465;SDS011;24244;51.950;5.902;2022-09-09T12:40:53;5.40;;;1.52;;
38465;SDS011;24244;51.950;5.902;2022-09-09T12:43:21;6.45;;;1.70;;
38465;SDS011;24244;51.950;5.902;2022-09-09T12:45:48;4.60;;;1.35;;
38465;SDS011;24244;51.950;5.902;2022-09-09T12:48:21;5.75;;;1.52;;
38465;SDS011;24244;51.950;5.902;2022-09-09T12:50:51;5.57;;;1.52;;
38465;SDS011;24244;51.950;5.902;2022-09-09T12:53:21;5.73;;;1.70;;
38465;SDS011;24244;51.950;5.902;2022-09-09T12:55:53;5.93;;;1.67;;
38465;SDS011;24244;51.950;5.902;2022-09-09T12:58:21;5.10;;;1.35;;
38465;SDS011;24244;51.950;5.902;2022-09-09T13:00:51;6.13;;;1.65;;
38465;SDS011;24244;51.950;5.902;2022-09-09T13:03:18;5.30;;;1.83;;
38465;SDS011;24244;51.950;5.902;2022-09-09T13:05:48;5.10;;;1.50;;
38465;SDS011;24244;51.950;5.902;2022-09-09T13:08:15;6.38;;;1.52;;
38465;SDS011;24244;51.950;5.902;2022-09-09T13:10:46;5.75;;;1.50;;
38465;SDS011;24244;51.950;5.902;2022-09-09T13:13:25;3.95;;;1.30;;
38465;SDS011;24244;51.950;5.902;2022-09-09T13:15:55;5.13;;;1.60;;
38465;SDS011;24244;51.950;5.902;2022-09-09T13:18:23;5.05;;;1.63;;
38465;SDS011;24244;51.950;5.902;2022-09-09T13:20:52;5.07;;;1.80;;
38465;SDS011;24244;51.950;5.902;2022-09-09T13:23:18;4.38;;;1.48;;
38465;SDS011;24244;51.950;5.902;2022-09-09T13:25:52;6.53;;;1.90;;
38465;SDS011;24244;51.950;5.902;2022-09-09T13:28:20;6.28;;;1.80;;
38465;SDS011;24244;51.950;5.902;2022-09-09T13:30:55;5.43;;;1.70;;
38465;SDS011;24244;51.950;5.902;2022-09-09T13:33:24;4.95;;;1.60;;
38465;SDS011;24244;51.950;5.902;2022-09-09T13:35:56;4.88;;;1.60;;
38465;SDS011;24244;51.950;5.902;2022-09-09T13:38:24;6.40;;;1.80;;
38465;SDS011;24244;51.950;5.902;2022-09-09T13:40:53;4.88;;;1.90;;
38465;SDS011;24244;51.950;5.902;2022-09-09T13:43:23;6.55;;;2.05;;
38465;SDS011;24244;51.950;5.902;2022-09-09T13:45:58;5.67;;;1.90;;
38465;SDS011;24244;51.950;5.902;2022-09-09T13:48:26;5.55;;;1.90;;
38465;SDS011;24244;51.950;5.902;2022-09-09T13:50:56;6.93;;;1.70;;
38465;SDS011;24244;51.950;5.902;2022-09-09T13:53:23;4.75;;;1.70;;
38465;SDS011;24244;51.950;5.902;2022-09-09T13:55:48;4.70;;;1.58;;
38465;SDS011;24244;51.950;5.902;2022-09-09T13:58:16;5.00;;;1.73;;
38465;SDS011;24244;51.950;5.902;2022-09-09T14:00:46;6.75;;;1.60;;
38465;SDS011;24244;51.950;5.902;2022-09-09T14:03:13;6.40;;;1.73;;
38465;SDS011;24244;51.950;5.902;2022-09-09T14:05:39;6.13;;;1.70;;
38465;SDS011;24244;51.950;5.902;2022-09-09T14:08:04;5.10;;;1.50;;
38465;SDS011;24244;51.950;5.902;2022-09-09T14:10:31;4.85;;;1.25;;
38465;SDS011;24244;51.950;5.902;2022-09-09T14:12:57;4.57;;;1.27;;
38465;SDS011;24244;51.950;5.902;2022-09-09T14:15:23;3.30;;;1.20;;
38465;SDS011;24244;51.950;5.902;2022-09-09T14:17:48;5.40;;;1.30;;
38465;SDS011;24244;51.950;5.902;2022-09-09T14:20:15;5.45;;;1.40;;
38465;SDS011;24244;51.950;5.902;2022-09-09T14:22:42;4.53;;;1.40;;
38465;SDS011;24244;51.950;5.902;2022-09-09T14:25:09;6.40;;;1.48;;
38465;SDS011;24244;51.950;5.902;2022-09-09T14:27:34;6.30;;;1.50;;
38465;SDS011;24244;51.950;5.902;2022-09-09T14:30:00;4.60;;;1.60;;
38465;SDS011;24244;51.950;5.902;2022-09-09T14:32:27;5.50;;;1.50;;
38465;SDS011;24244;51.950;5.902;2022-09-09T14:34:52;4.80;;;1.25;;
38465;SDS011;24244;51.950;5.902;2022-09-09T14:37:19;4.47;;;1.52;;
38465;SDS011;24244;51.950;5.902;2022-09-09T14:39:45;4.85;;;1.55;;
38465;SDS011;24244;51.950;5.902;2022-09-09T14:42:12;4.30;;;1.30;;
38465;SDS011;24244;51.950;5.902;2022-09-09T14:44:38;4.47;;;1.30;;
38465;SDS011;24244;51.950;5.902;2022-09-09T14:47:03;6.25;;;1.52;;
38465;SDS011;24244;51.950;5.902;2022-09-09T14:49:29;5.10;;;1.45;;
38465;SDS011;24244;51.950;5.902;2022-09-09T14:51:55;5.78;;;1.60;;
38465;SDS011;24244;51.950;5.902;2022-09-09T14:54:22;6.63;;;1.60;;
38465;SDS011;24244;51.950;5.902;2022-09-09T14:56:48;4.90;;;1.50;;
38465;SDS011;24244;51.950;5.902;2022-09-09T14:59:13;4.82;;;1.50;;
38465;SDS011;24244;51.950;5.902;2022-09-09T15:01:39;5.47;;;1.30;;
38465;SDS011;24244;51.950;5.902;2022-09-09T15:04:06;4.70;;;1.42;;
38465;SDS011;24244;51.950;5.902;2022-09-09T15:06:33;6.53;;;1.52;;
38465;SDS011;24244;51.950;5.902;2022-09-09T15:09:02;4.65;;;1.55;;
38465;SDS011;24244;51.950;5.902;2022-09-09T15:11:30;7.20;;;1.60;;
38465;SDS011;24244;51.950;5.902;2022-09-09T15:14:04;7.68;;;1.55;;
38465;SDS011;24244;51.950;5.902;2022-09-09T15:16:30;5.03;;;1.48;;
38465;SDS011;24244;51.950;5.902;2022-09-09T15:18:57;5.32;;;1.50;;
38465;SDS011;24244;51.950;5.902;2022-09-09T15:21:25;5.15;;;1.50;;